Time;durP1;ratioP1;P1;durP2;ratioP2;P2;SDS_P1;SDS_P2;PMS_P1;PMS_P2;Temp;Humidity;BMP_temperature;BMP_pressure;BME280_temperature;BME280_humidity;BME280_pressure;Samples;Min_cycle;Max_cycle;Signal;HPM_P1;HPM_P2
2022/10/03 00:01:59;;;;;;;0.80;0.80;;;;;;;14.34;100.00;96927.81;5064450;28;20201;-83
2022/10/03 00:04:40;;;;;;;0.80;0.80;;;;;;;14.37;100.00;96924.59;5066345;28;20214;-85
2022/10/03 00:07:22;;;;;;;0.90;0.80;;;;;;;14.45;100.00;96922.63;5065038;28;20221;-84
2022/10/03 00:10:04;;;;;;;0.77;0.77;;;;;;;14.38;100.00;96914.56;5057227;28;20217;-85
2022/10/03 00:12:46;;;;;;;1.17;0.80;;;;;;;14.28;100.00;96926.06;5067598;28;20229;-86
2022/10/03 00:15:22;;;;;;;0.97;0.90;;;;;;;14.34;100.00;96925.09;5068541;28;20248;-86
2022/10/03 00:18:02;;;;;;;0.70;0.70;;;;;;;14.12;100.00;96907.75;5065368;28;20201;-81
2022/10/03 00:20:51;;;;;;;1.03;0.90;;;;;;;14.17;100.00;96913.31;5068588;28;20211;-85
2022/10/03 00:23:24;;;;;;;1.27;0.73;;;;;;;14.13;100.00;96909.41;5063925;28;20213;-84
2022/10/03 00:26:25;;;;;;;1.33;0.70;;;;;;;14.15;100.00;96917.31;5057998;28;20210;-82
2022/10/03 00:29:02;;;;;;;0.70;0.70;;;;;;;14.08;100.00;96920.19;5065692;28;20210;-84
2022/10/03 00:31:41;;;;;;;1.07;0.70;;;;;;;14.13;100.00;96935.75;5060582;28;20237;-79
2022/10/03 00:34:19;;;;;;;2.10;0.90;;;;;;;14.14;100.00;96931.97;5072852;28;20215;-86
2022/10/03 00:36:56;;;;;;;0.73;0.73;;;;;;;14.11;100.00;96936.00;5060132;28;20283;-85
2022/10/03 00:39:46;;;;;;;0.80;0.80;;;;;;;14.08;100.00;96922.06;5065523;28;20229;-85
2022/10/03 00:42:44;;;;;;;0.70;0.70;;;;;;;14.11;100.00;96933.28;5072969;28;20212;-78
2022/10/03 00:45:43;;;;;;;2.70;0.73;;;;;;;14.05;100.00;96933.41;5072619;28;20224;-83
2022/10/03 00:48:41;;;;;;;0.60;0.60;;;;;;;14.03;100.00;96936.38;5070487;28;20285;-84
2022/10/03 00:51:22;;;;;;;0.70;0.70;;;;;;;13.99;100.00;96935.19;5079589;28;20210;-84
2022/10/03 00:54:17;;;;;;;2.00;0.70;;;;;;;13.89;100.00;96934.94;5071533;28;20212;-83
2022/10/03 00:57:00;;;;;;;1.20;0.80;;;;;;;13.86;100.00;96930.00;5073798;28;20213;-86
2022/10/03 01:00:05;;;;;;;0.70;0.70;;;;;;;13.71;100.00;96913.34;5071745;28;20205;-82
2022/10/03 01:02:47;;;;;;;0.70;0.70;;;;;;;13.72;100.00;96918.53;5067978;28;20205;-83
2022/10/03 01:05:28;;;;;;;1.40;0.73;;;;;;;13.79;100.00;96926.56;5070826;28;20225;-83
2022/10/03 01:08:11;;;;;;;0.70;0.70;;;;;;;13.73;100.00;96922.09;5068645;28;20229;-83
2022/10/03 01:10:49;;;;;;;0.93;0.93;;;;;;;13.72;100.00;96928.56;5064159;28;20213;-87
2022/10/03 01:13:30;;;;;;;5.17;0.70;;;;;;;13.81;100.00;96929.88;5078512;28;20233;-84
2022/10/03 01:16:09;;;;;;;0.60;0.60;;;;;;;13.75;100.00;96930.81;5063709;28;20226;-86
2022/10/03 01:18:51;;;;;;;3.10;0.87;;;;;;;13.83;100.00;96941.31;5069077;28;20216;-83
2022/10/03 01:21:34;;;;;;;0.70;0.70;;;;;;;13.79;100.00;96934.69;5068574;28;20201;-80
2022/10/03 01:24:26;;;;;;;0.80;0.80;;;;;;;13.77;100.00;96926.81;5070847;28;20208;-87
2022/10/03 01:26:57;;;;;;;0.70;0.70;;;;;;;13.77;100.00;96917.84;5055128;28;20257;-81
2022/10/03 01:32:38;;;;;;;0.97;0.80;;;;;;;13.86;100.00;96925.41;5060810;28;20240;-83
2022/10/03 01:35:21;;;;;;;3.73;0.90;;;;;;;13.88;100.00;96925.16;5063711;28;20193;-84
2022/10/03 01:37:57;;;;;;;1.77;0.73;;;;;;;13.87;100.00;96921.59;5062968;28;20293;-85
2022/10/03 01:40:29;;;;;;;0.70;0.70;;;;;;;13.84;100.00;96926.69;5060828;28;20208;-85
2022/10/03 01:43:10;;;;;;;0.80;0.70;;;;;;;13.77;100.00;96928.72;5068647;28;20558;-85
2022/10/03 01:45:48;;;;;;;0.70;0.70;;;;;;;13.77;100.00;96921.41;5058934;28;20227;-83
2022/10/03 01:48:22;;;;;;;0.80;0.80;;;;;;;13.79;100.00;96915.72;5070094;28;20205;-82
2022/10/03 01:51:00;;;;;;;0.70;0.70;;;;;;;13.80;100.00;96920.06;5065574;28;20241;-82
2022/10/03 01:53:38;;;;;;;6.33;0.90;;;;;;;13.78;100.00;96927.66;5076528;28;20214;-83
2022/10/03 01:56:14;;;;;;;0.97;0.80;;;;;;;13.78;100.00;96919.50;5063425;28;20263;-84
2022/10/03 01:58:55;;;;;;;1.53;1.00;;;;;;;13.82;100.00;96912.53;5060930;28;20215;-82
2022/10/03 02:01:31;;;;;;;0.87;0.87;;;;;;;13.70;100.00;96911.69;5060135;28;20323;-85
2022/10/03 02:04:05;;;;;;;0.80;0.80;;;;;;;13.70;100.00;96919.84;5067462;28;20201;-85
2022/10/03 02:06:51;;;;;;;2.10;0.80;;;;;;;13.83;100.00;96930.47;5064897;28;20303;-83
2022/10/03 02:09:27;;;;;;;1.07;0.80;;;;;;;13.75;100.00;96920.81;5071283;28;20235;-85
2022/10/03 02:12:03;;;;;;;1.27;1.07;;;;;;;13.77;100.00;96915.13;5059782;28;20209;-83
2022/10/03 02:14:40;;;;;;;1.27;1.00;;;;;;;13.76;100.00;96932.47;5062992;28;20245;-84
2022/10/03 02:17:14;;;;;;;1.77;0.80;;;;;;;13.71;100.00;96932.34;5069419;28;20228;-80
2022/10/03 02:19:47;;;;;;;1.77;0.90;;;;;;;13.77;100.00;96934.97;5067602;28;20202;-86
2022/10/03 02:22:28;;;;;;;1.07;0.90;;;;;;;13.76;100.00;96925.16;5061040;28;20292;-86
2022/10/03 02:25:08;;;;;;;0.80;0.80;;;;;;;13.79;100.00;96935.53;5083525;28;20213;-85
2022/10/03 02:27:56;;;;;;;1.47;0.90;;;;;;;13.86;100.00;96944.41;5067134;28;20328;-81
2022/10/03 02:30:34;;;;;;;1.00;0.90;;;;;;;13.81;100.00;96927.16;5071536;28;20278;-83
2022/10/03 02:33:25;;;;;;;1.00;0.90;;;;;;;13.79;100.00;96929.28;5081865;28;20202;-84
2022/10/03 02:36:26;;;;;;;1.10;1.00;;;;;;;13.87;100.00;96942.50;5065168;28;20293;-85
2022/10/03 02:39:28;;;;;;;1.43;1.00;;;;;;;13.86;100.00;96941.69;5061258;28;20206;-85
2022/10/03 02:42:38;;;;;;;0.90;0.90;;;;;;;13.87;100.00;96937.06;5072670;28;20293;-83
2022/10/03 02:45:47;;;;;;;1.13;0.87;;;;;;;13.89;100.00;96935.78;5068278;28;20201;-84
2022/10/03 02:48:47;;;;;;;1.60;0.90;;;;;;;13.94;100.00;96938.63;5048675;28;20213;-83
2022/10/03 02:51:44;;;;;;;1.67;1.00;;;;;;;13.95;100.00;96931.31;5036523;28;20205;-86
2022/10/03 02:54:48;;;;;;;1.20;1.10;;;;;;;13.96;100.00;96938.34;5069891;28;20288;-87
2022/10/03 02:58:00;;;;;;;0.93;0.93;;;;;;;13.96;100.00;96930.22;5036613;28;20228;-83
2022/10/03 03:00:39;;;;;;;2.50;2.00;;;;;;;13.91;100.00;96932.81;5068497;28;20214;-85
2022/10/03 03:03:49;;;;;;;1.60;1.50;;;;;;;13.87;100.00;96931.63;5069023;28;20197;-86
2022/10/03 03:06:36;;;;;;;1.00;1.00;;;;;;;13.81;100.00;96921.72;5026728;28;20229;-85
2022/10/03 03:09:36;;;;;;;0.93;0.93;;;;;;;13.76;100.00;96924.34;5060323;28;20297;-78
2022/10/03 03:12:44;;;;;;;1.97;1.13;;;;;;;13.74;100.00;96923.75;5081587;28;20201;-84
2022/10/03 03:16:14;;;;;;;2.67;0.90;;;;;;;13.77;100.00;96926.81;5065467;28;20314;-82
2022/10/03 03:18:47;;;;;;;2.97;0.63;;;;;;;13.92;100.00;96931.78;4935819;29;20220;-84
2022/10/03 03:21:23;;;;;;;0.93;0.50;;;;;;;14.08;100.00;96932.94;4997673;28;20252;-84
2022/10/03 03:24:22;;;;;;;0.70;0.70;;;;;;;14.22;100.00;96929.72;5051539;28;20247;-84
2022/10/03 03:27:09;;;;;;;0.70;0.70;;;;;;;14.33;100.00;96942.44;5067987;28;20240;-84
2022/10/03 03:29:47;;;;;;;0.50;0.50;;;;;;;14.46;100.00;96948.72;5062856;28;20273;-81
2022/10/03 03:32:27;;;;;;;0.57;0.53;;;;;;;14.49;100.00;96945.50;5062774;28;20274;-85
2022/10/03 03:35:06;;;;;;;0.60;0.60;;;;;;;14.50;100.00;96948.00;5068574;28;20292;-84
2022/10/03 03:37:44;;;;;;;0.60;0.60;;;;;;;14.49;100.00;96946.34;5068137;28;20269;-86
2022/10/03 03:40:39;;;;;;;1.40;0.83;;;;;;;14.45;100.00;96941.63;5064629;28;20210;-84
2022/10/03 03:43:27;;;;;;;0.77;0.73;;;;;;;14.46;100.00;96943.31;5069182;28;20228;-84
2022/10/03 03:46:19;;;;;;;0.90;0.70;;;;;;;14.35;100.00;96944.94;5066624;28;20225;-83
2022/10/03 03:49:00;;;;;;;0.80;0.80;;;;;;;14.24;100.00;96951.22;5068298;28;20208;-82
2022/10/03 03:51:40;;;;;;;0.80;0.80;;;;;;;14.16;100.00;96940.72;5068922;28;20201;-84
2022/10/03 03:54:25;;;;;;;1.13;0.80;;;;;;;14.00;100.00;96932.22;5066619;28;20251;-82
2022/10/03 03:57:08;;;;;;;0.70;0.70;;;;;;;13.95;100.00;96942.16;5063955;28;20212;-87
2022/10/03 04:00:09;;;;;;;0.70;0.70;;;;;;;13.96;100.00;96935.66;5063530;28;20216;-84
2022/10/03 04:03:00;;;;;;;1.03;0.80;;;;;;;13.99;100.00;96938.72;5058069;28;20197;-84
2022/10/03 04:05:44;;;;;;;0.60;0.60;;;;;;;14.07;100.00;96939.41;5066235;28;20208;-81
2022/10/03 04:08:33;;;;;;;0.67;0.67;;;;;;;13.98;100.00;96937.06;5067452;28;20201;-84
2022/10/03 04:11:15;;;;;;;0.70;0.70;;;;;;;14.06;100.00;96944.03;5058038;28;20245;-85
2022/10/03 04:14:10;;;;;;;3.27;0.70;;;;;;;14.13;100.00;96939.28;5066090;28;20276;-83
2022/10/03 04:19:55;;;;;;;2.93;0.60;;;;;;;14.21;100.00;96948.97;5065669;28;20244;-81
2022/10/03 04:22:37;;;;;;;0.60;0.60;;;;;;;14.23;100.00;96938.69;5049561;28;20202;-85
2022/10/03 04:25:25;;;;;;;0.93;0.87;;;;;;;14.26;100.00;96936.34;5067075;28;20213;-85
2022/10/03 04:28:09;;;;;;;0.83;0.83;;;;;;;14.15;100.00;96926.31;5067386;28;20225;-86
2022/10/03 04:30:48;;;;;;;1.97;0.90;;;;;;;14.23;100.00;96930.53;5062041;28;20197;-86
2022/10/03 04:33:31;;;;;;;0.83;0.83;;;;;;;14.19;100.00;96941.06;5067043;28;20598;-83
2022/10/03 04:36:34;;;;;;;1.00;0.90;;;;;;;14.16;100.00;96938.00;5063832;28;20236;-83
2022/10/03 04:39:09;;;;;;;4.50;0.90;;;;;;;14.15;100.00;96939.06;5033823;28;20222;-79
2022/10/03 04:41:44;;;;;;;1.43;0.70;;;;;;;14.16;100.00;96941.53;5060421;28;20215;-83
2022/10/03 04:44:30;;;;;;;0.50;0.50;;;;;;;14.09;100.00;96940.84;5064954;28;20209;-85
2022/10/03 04:47:01;;;;;;;1.97;0.70;;;;;;;14.21;100.00;96946.25;5062363;28;20224;-84
2022/10/03 04:49:39;;;;;;;0.50;0.50;;;;;;;14.34;100.00;96938.69;5062838;28;20206;-85
2022/10/03 04:52:18;;;;;;;0.60;0.60;;;;;;;14.35;100.00;96944.94;5061887;28;20312;-85
2022/10/03 04:54:54;;;;;;;0.70;0.70;;;;;;;14.37;100.00;96931.94;5062284;28;20270;-81
2022/10/03 04:57:30;;;;;;;0.60;0.60;;;;;;;14.46;100.00;96935.16;5061484;28;20235;-82
2022/10/03 05:00:07;;;;;;;0.77;0.77;;;;;;;14.42;100.00;96933.97;5059996;28;20281;-85
2022/10/03 05:02:46;;;;;;;0.60;0.60;;;;;;;14.43;100.00;96931.00;5058312;28;20210;-86
2022/10/03 05:05:40;;;;;;;0.60;0.60;;;;;;;14.43;100.00;96935.63;5059872;28;20210;-84
2022/10/03 05:08:19;;;;;;;0.60;0.60;;;;;;;14.33;100.00;96931.59;5055704;28;20232;-84
2022/10/03 05:11:02;;;;;;;0.77;0.60;;;;;;;14.41;100.00;96927.69;5063850;28;20208;-81
2022/10/03 05:13:39;;;;;;;0.63;0.63;;;;;;;14.40;100.00;96926.03;5067329;28;20251;-86
2022/10/03 05:16:21;;;;;;;1.00;0.90;;;;;;;14.26;100.00;96928.19;5087767;28;20246;-84
2022/10/03 05:18:55;;;;;;;0.60;0.60;;;;;;;14.21;100.00;96932.66;5083714;28;20209;-81
2022/10/03 05:21:33;;;;;;;1.90;0.90;;;;;;;14.15;100.00;96937.16;5057609;28;20209;-83
2022/10/03 05:24:14;;;;;;;1.13;1.03;;;;;;;14.17;100.00;96937.75;5068044;28;20205;-84
2022/10/03 05:26:47;;;;;;;1.07;0.97;;;;;;;14.10;100.00;96931.63;5070823;28;20228;-81
2022/10/03 05:29:28;;;;;;;1.20;1.10;;;;;;;14.07;100.00;96934.00;5069313;28;20236;-85
2022/10/03 05:32:13;;;;;;;4.13;1.13;;;;;;;14.06;100.00;96941.31;5069748;28;20209;-82
2022/10/03 05:35:01;;;;;;;0.93;0.90;;;;;;;14.01;100.00;96939.31;5077440;28;20205;-87
2022/10/03 05:37:55;;;;;;;0.70;0.70;;;;;;;13.94;100.00;96933.19;5066487;28;20210;-85
2022/10/03 05:40:26;;;;;;;1.50;1.40;;;;;;;13.96;100.00;96932.94;5069432;28;20218;-86
2022/10/03 05:43:02;;;;;;;1.47;1.00;;;;;;;14.01;100.00;96950.19;5073462;28;20296;-85
2022/10/03 05:45:38;;;;;;;0.70;0.70;;;;;;;13.94;100.00;96944.06;5070872;28;20315;-86
2022/10/03 05:48:14;;;;;;;1.27;0.83;;;;;;;13.96;100.00;96947.34;5069476;28;20224;-83
2022/10/03 05:51:02;;;;;;;0.53;0.53;;;;;;;14.05;100.00;96969.53;5071056;28;20217;-83
2022/10/03 05:54:05;;;;;;;0.93;0.73;;;;;;;14.05;100.00;96972.25;5067404;28;20209;-85
2022/10/03 05:57:06;;;;;;;2.83;0.60;;;;;;;14.06;100.00;96968.47;5069048;28;20228;-84
2022/10/03 05:59:51;;;;;;;0.60;0.60;;;;;;;14.01;100.00;96952.06;5043642;28;20209;-85
2022/10/03 06:02:52;;;;;;;0.70;0.70;;;;;;;14.12;100.00;96972.13;5061106;28;20213;-79
2022/10/03 06:05:37;;;;;;;0.73;0.73;;;;;;;14.12;100.00;96977.56;5061350;28;20228;-82
2022/10/03 06:08:49;;;;;;;0.83;0.70;;;;;;;14.09;100.00;96981.56;5066931;28;20222;-82
2022/10/03 06:11:34;;;;;;;2.30;0.97;;;;;;;14.08;100.00;96988.06;5005958;28;20210;-85
2022/10/03 06:14:29;;;;;;;1.13;1.03;;;;;;;14.11;100.00;96998.47;5063684;28;20233;-85
2022/10/03 06:17:14;;;;;;;0.73;0.73;;;;;;;14.07;100.00;96994.56;5075378;28;20206;-83
2022/10/03 06:19:49;;;;;;;0.97;0.80;;;;;;;14.12;100.00;97000.09;5066195;28;20202;-85
2022/10/03 06:23:00;;;;;;;0.60;0.60;;;;;;;14.17;100.00;97002.94;5059786;28;20297;-83
2022/10/03 06:26:00;;;;;;;0.60;0.60;;;;;;;14.13;100.00;97003.63;5065225;28;20208;-84
2022/10/03 06:28:56;;;;;;;0.63;0.63;;;;;;;14.12;100.00;97004.72;5052554;28;20304;-85
2022/10/03 06:32:03;;;;;;;0.93;0.70;;;;;;;14.12;100.00;97016.38;5061228;28;20206;-85
2022/10/03 06:34:51;;;;;;;0.60;0.60;;;;;;;14.20;100.00;97007.09;5017071;28;20218;-88
2022/10/03 06:37:59;;;;;;;0.67;0.67;;;;;;;14.09;100.00;96995.16;5069271;28;20216;-88
2022/10/03 06:41:10;;;;;;;1.00;0.70;;;;;;;14.14;100.00;96991.72;5041098;28;20214;-84
2022/10/03 06:44:11;;;;;;;0.60;0.60;;;;;;;14.02;100.00;96999.88;5062081;28;20205;-82
2022/10/03 06:46:59;;;;;;;0.77;0.60;;;;;;;14.12;100.00;97013.69;5062100;28;20198;-85
2022/10/03 06:50:09;;;;;;;1.53;0.63;;;;;;;14.16;100.00;97014.88;5057904;28;20278;-88
2022/10/03 06:52:55;;;;;;;0.77;0.70;;;;;;;14.09;100.00;97021.50;4984883;28;20280;-84
2022/10/03 06:55:48;;;;;;;0.50;0.50;;;;;;;14.05;100.00;97021.13;5049169;28;20273;-87
2022/10/03 06:58:50;;;;;;;0.57;0.57;;;;;;;14.10;100.00;97015.81;5074770;28;20217;-83
2022/10/03 07:02:06;;;;;;;1.27;0.70;;;;;;;14.13;100.00;97015.34;5066491;28;20201;-85
2022/10/03 07:05:02;;;;;;;0.60;0.60;;;;;;;14.13;100.00;97023.47;5080849;28;20241;-84
2022/10/03 07:08:14;;;;;;;1.63;0.60;;;;;;;14.12;100.00;97037.31;5069568;28;20225;-82
2022/10/03 07:11:11;;;;;;;0.67;0.67;;;;;;;14.17;100.00;97032.81;5061191;28;20264;-87
2022/10/03 07:14:15;;;;;;;0.70;0.70;;;;;;;14.08;100.00;97031.53;5059468;28;20253;-82
2022/10/03 07:17:13;;;;;;;1.90;0.80;;;;;;;14.13;100.00;97037.06;5061573;28;20220;-83
2022/10/03 07:20:09;;;;;;;0.57;0.57;;;;;;;14.14;100.00;97036.00;5066531;28;20206;-85
2022/10/03 07:23:16;;;;;;;0.60;0.60;;;;;;;14.20;100.00;97039.69;5082802;28;20233;-86
2022/10/03 07:26:31;;;;;;;0.60;0.60;;;;;;;14.24;100.00;97038.97;5065865;28;20209;-82
2022/10/03 07:29:21;;;;;;;0.50;0.50;;;;;;;14.32;100.00;97044.03;5004968;28;20239;-84
2022/10/03 07:32:08;;;;;;;0.70;0.70;;;;;;;14.31;100.00;97049.69;5062096;28;20209;-84
2022/10/03 07:35:13;;;;;;;0.73;0.50;;;;;;;14.34;100.00;97051.94;5067380;28;20205;-84
2022/10/03 07:41:38;;;;;;;0.50;0.50;;;;;;;14.38;100.00;97051.25;5074089;28;20460;-84
2022/10/03 07:44:36;;;;;;;0.50;0.50;;;;;;;14.33;100.00;97062.00;5059825;28;20274;-88
2022/10/03 07:47:56;;;;;;;0.60;0.60;;;;;;;14.35;100.00;97062.59;5065046;28;20185;-77
2022/10/03 07:50:51;;;;;;;0.60;0.60;;;;;;;14.40;100.00;97064.63;5046020;28;20218;-83
2022/10/03 07:53:45;;;;;;;0.50;0.50;;;;;;;14.45;100.00;97078.34;5069088;28;20274;-83
2022/10/03 07:56:39;;;;;;;0.57;0.57;;;;;;;14.45;100.00;97072.06;5021420;28;20208;-86
2022/10/03 07:59:36;;;;;;;0.60;0.60;;;;;;;14.45;100.00;97072.06;5064343;28;20329;-83
2022/10/03 08:02:19;;;;;;;0.60;0.60;;;;;;;14.51;100.00;97073.81;5061145;28;20209;-83
2022/10/03 08:05:10;;;;;;;0.50;0.50;;;;;;;14.49;100.00;97071.34;5053784;28;20285;-83
2022/10/03 08:08:02;;;;;;;1.67;0.70;;;;;;;14.42;100.00;97078.78;5063086;28;20221;-82
2022/10/03 08:11:06;;;;;;;1.27;0.80;;;;;;;14.44;100.00;97075.84;5062886;28;20217;-83
2022/10/03 08:13:54;;;;;;;1.13;0.60;;;;;;;14.45;100.00;97069.34;5040705;28;20233;-82
2022/10/03 08:16:45;;;;;;;0.50;0.50;;;;;;;14.54;100.00;97071.47;5064150;28;20221;-83
2022/10/03 08:19:33;;;;;;;1.03;0.60;;;;;;;14.54;100.00;97074.19;5069858;28;20197;-85
2022/10/03 08:22:09;;;;;;;0.60;0.60;;;;;;;14.64;100.00;97073.56;5068696;28;20197;-85
2022/10/03 08:25:00;;;;;;;0.50;0.50;;;;;;;14.67;100.00;97078.53;5083146;28;20282;-85
2022/10/03 08:27:51;;;;;;;0.50;0.50;;;;;;;14.73;100.00;97077.56;5067166;28;20209;-78
2022/10/03 08:30:24;;;;;;;0.77;0.60;;;;;;;14.75;100.00;97075.44;5066750;28;20213;-82
2022/10/03 08:33:08;;;;;;;0.77;0.50;;;;;;;14.75;100.00;97070.84;5052776;28;20206;-85
2022/10/03 08:36:14;;;;;;;0.60;0.60;;;;;;;14.68;100.00;97074.75;5062647;28;20312;-85
2022/10/03 08:39:12;;;;;;;0.60;0.60;;;;;;;14.77;100.00;97078.78;5087017;28;20232;-85
2022/10/03 08:42:20;;;;;;;0.60;0.60;;;;;;;14.77;100.00;97078.78;5066886;28;20403;-86
2022/10/03 08:45:25;;;;;;;0.70;0.70;;;;;;;14.75;100.00;97075.44;5060387;28;20325;-85
2022/10/03 08:48:40;;;;;;;0.53;0.50;;;;;;;14.72;100.00;97071.31;5050044;28;20256;-80
2022/10/03 08:51:46;;;;;;;1.90;0.63;;;;;;;14.80;100.00;97072.81;5067777;28;20202;-83
2022/10/03 08:54:41;;;;;;;0.67;0.67;;;;;;;14.92;100.00;97084.53;5069563;28;20210;-83
2022/10/03 08:57:37;;;;;;;0.50;0.50;;;;;;;14.95;100.00;97083.22;5070784;28;20220;-87
2022/10/03 09:00:20;;;;;;;0.53;0.53;;;;;;;14.91;100.00;97080.16;5070328;28;20216;-85
2022/10/03 09:03:27;;;;;;;0.50;0.50;;;;;;;14.90;100.00;97083.09;5069979;28;20277;-83
2022/10/03 09:06:38;;;;;;;1.10;0.70;;;;;;;14.93;100.00;97086.19;5084673;28;20217;-87
2022/10/03 09:09:34;;;;;;;0.70;0.70;;;;;;;14.97;100.00;97081.91;5066052;28;20244;-84
2022/10/03 09:12:30;;;;;;;1.90;0.80;;;;;;;15.02;100.00;97089.34;4982758;28;20243;-84
2022/10/03 09:15:19;;;;;;;0.80;0.60;;;;;;;15.06;100.00;97088.63;5067332;28;20241;-85
2022/10/03 09:18:06;;;;;;;0.60;0.60;;;;;;;15.05;100.00;97092.44;5039784;28;20212;-84
2022/10/03 09:21:21;;;;;;;1.87;0.80;;;;;;;15.14;100.00;97093.69;5069240;28;20210;-81
2022/10/03 09:24:20;;;;;;;9.00;1.67;;;;;;;15.19;100.00;97094.88;4993760;28;20205;-82
2022/10/03 09:27:27;;;;;;;2.67;1.73;;;;;;;15.28;100.00;97102.41;5065501;28;20233;-80
2022/10/03 09:30:31;;;;;;;1.00;0.90;;;;;;;15.40;100.00;97088.75;5070092;28;20236;-83
2022/10/03 09:33:28;;;;;;;2.70;1.20;;;;;;;15.39;100.00;97089.84;5069072;28;20210;-85
2022/10/03 09:36:12;;;;;;;0.70;0.63;;;;;;;15.45;100.00;97089.69;5070280;28;20220;-84
2022/10/03 09:39:04;;;;;;;0.70;0.70;;;;;;;15.63;100.00;97088.69;5072560;28;20332;-85
2022/10/03 09:41:55;;;;;;;0.80;0.80;;;;;;;15.76;100.00;97079.38;5061306;28;20289;-83
2022/10/03 09:44:48;;;;;;;0.70;0.70;;;;;;;16.13;100.00;97079.75;5070313;28;20206;-86
2022/10/03 09:47:43;;;;;;;0.60;0.60;;;;;;;16.20;100.00;97083.13;5070914;28;20210;-84
2022/10/03 09:50:51;;;;;;;0.60;0.60;;;;;;;16.11;100.00;97080.00;5073492;28;20227;-84
2022/10/03 09:53:44;;;;;;;0.60;0.60;;;;;;;16.21;100.00;97071.16;5063259;28;20209;-81
2022/10/03 09:56:47;;;;;;;0.97;0.60;;;;;;;16.18;100.00;97071.66;5068383;28;20213;-85
2022/10/03 09:59:51;;;;;;;0.67;0.67;;;;;;;16.09;100.00;97065.78;5070354;28;20240;-83
2022/10/03 10:02:56;;;;;;;0.60;0.60;;;;;;;16.24;100.00;97065.22;5052982;28;20213;-83
2022/10/03 10:05:58;;;;;;;0.87;0.77;;;;;;;16.26;100.00;97057.59;5056181;28;20244;-79
2022/10/03 10:08:58;;;;;;;1.83;0.70;;;;;;;16.29;100.00;97059.84;5050849;28;20247;-83
2022/10/03 10:11:40;;;;;;;0.50;0.50;;;;;;;16.37;100.00;97053.97;5066787;28;20229;-84
2022/10/03 10:14:42;;;;;;;3.10;0.80;;;;;;;16.46;100.00;97047.03;5066758;28;20246;-82
2022/10/03 10:17:49;;;;;;;0.70;0.70;;;;;;;16.49;100.00;97046.53;5068036;28;20206;-85
2022/10/03 10:20:36;;;;;;;1.10;0.77;;;;;;;16.69;100.00;97039.72;5059067;28;20233;-83
2022/10/03 10:23:39;;;;;;;1.07;0.80;;;;;;;16.94;100.00;97046.34;5065794;28;20226;-80
2022/10/03 10:26:43;;;;;;;0.60;0.60;;;;;;;17.30;100.00;97050.31;5068400;28;20236;-84
2022/10/03 10:29:41;;;;;;;0.70;0.70;;;;;;;17.49;100.00;97044.53;5066683;28;20333;-85
2022/10/03 10:32:56;;;;;;;0.60;0.60;;;;;;;17.61;100.00;97046.00;5041399;28;20220;-82
2022/10/03 10:35:55;;;;;;;1.00;0.80;;;;;;;17.92;100.00;97043.59;5063510;28;20297;-82
2022/10/03 10:38:38;;;;;;;1.10;0.80;;;;;;;18.18;100.00;97033.72;5069355;28;20264;-86
2022/10/03 10:41:47;;;;;;;0.60;0.60;;;;;;;18.69;100.00;97038.47;5070809;28;20241;-84
2022/10/03 10:44:48;;;;;;;0.70;0.70;;;;;;;18.88;100.00;97033.38;5064600;28;20206;-83
2022/10/03 10:48:11;;;;;;;0.60;0.60;;;;;;;18.73;100.00;97045.03;5033528;28;20249;-87
2022/10/03 10:51:22;;;;;;;0.77;0.70;;;;;;;18.50;100.00;97043.50;5032310;28;20206;-85
2022/10/03 10:54:32;;;;;;;0.67;0.67;;;;;;;18.29;100.00;97036.22;5084165;28;20206;-84
2022/10/03 10:57:13;;;;;;;0.60;0.60;;;;;;;18.31;100.00;97033.25;5070941;28;20237;-84
2022/10/03 11:00:07;;;;;;;0.70;0.70;;;;;;;18.36;100.00;97036.03;5085702;28;20206;-85
2022/10/03 11:03:10;;;;;;;0.80;0.80;;;;;;;18.78;100.00;97034.13;5065530;28;20304;-84
2022/10/03 11:06:03;;;;;;;0.60;0.60;;;;;;;19.22;100.00;97036.53;5064320;28;20212;-83
2022/10/03 11:09:10;;;;;;;0.60;0.60;;;;;;;19.34;100.00;97041.75;5032514;28;20314;-84
2022/10/03 11:12:23;;;;;;;0.90;0.73;;;;;;;19.10;100.00;97035.91;5059879;28;20224;-86
2022/10/03 11:15:34;;;;;;;0.65;0.65;;;;;;;18.52;100.00;97035.03;5064307;28;20241;-84
2022/10/03 11:18:30;;;;;;;2.05;0.70;;;;;;;18.39;100.00;97021.81;5067829;28;20221;-82
2022/10/03 11:21:31;;;;;;;3.23;0.80;;;;;;;18.29;100.00;97019.84;5069593;28;20202;-85
2022/10/03 11:24:46;;;;;;;0.70;0.70;;;;;;;18.36;100.00;97004.03;5082961;28;20218;-85
2022/10/03 11:27:44;;;;;;;0.70;0.70;;;;;;;18.42;100.00;97013.91;4991866;28;20230;-84
2022/10/03 11:30:56;;;;;;;0.70;0.70;;;;;;;18.33;100.00;97006.47;5079588;28;20232;-83
2022/10/03 11:34:03;;;;;;;2.50;0.93;;;;;;;18.45;100.00;97012.59;5065028;28;20210;-85
2022/10/03 11:37:04;;;;;;;0.90;0.90;;;;;;;18.51;100.00;97015.06;5058208;28;20216;-76
2022/10/03 11:39:43;;;;;;;1.10;0.80;;;;;;;18.64;100.00;97011.06;5059605;28;20206;-78
2022/10/03 11:42:27;;;;;;;1.10;0.80;;;;;;;18.67;100.00;96996.88;5066533;28;20194;-82
2022/10/03 11:44:58;;;;;;;1.07;0.70;;;;;;;19.01;100.00;96993.72;5070810;28;20271;-84
2022/10/03 11:47:55;;;;;;;0.80;0.80;;;;;;;19.33;100.00;97013.53;5064541;28;20213;-84
2022/10/03 11:50:45;;;;;;;0.70;0.70;;;;;;;19.41;98.26;96988.34;5070124;28;20204;-87
2022/10/03 11:53:19;;;;;;;0.70;0.70;;;;;;;19.53;97.72;96991.72;5066911;28;20212;-88
2022/10/03 11:55:56;;;;;;;0.80;0.80;;;;;;;19.83;96.89;96999.13;5067514;28;20212;-84
2022/10/03 11:58:48;;;;;;;0.63;0.63;;;;;;;20.17;95.30;96993.91;5074407;28;20215;-83
2022/10/03 12:01:26;;;;;;;1.05;0.82;;;;;;;20.27;93.24;96988.41;5083332;28;20221;-86
2022/10/03 12:04:02;;;;;;;1.27;0.77;;;;;;;20.39;92.18;96985.44;5069048;28;20221;-80
2022/10/03 12:09:46;;;;;;;0.60;0.60;;;;;;;20.39;92.52;96982.69;5065412;28;20229;-83
2022/10/03 12:12:26;;;;;;;1.50;0.80;;;;;;;20.79;92.31;96989.97;5061906;28;20281;-82
2022/10/03 12:15:03;;;;;;;0.73;0.73;;;;;;;20.98;89.93;96991.00;5071458;28;20263;-83
2022/10/03 12:17:34;;;;;;;1.35;0.70;;;;;;;20.75;88.50;96977.94;5076384;28;20205;-83
2022/10/03 12:20:09;;;;;;;0.70;0.70;;;;;;;20.82;89.60;96980.38;5075124;28;20417;-80
2022/10/03 12:22:48;;;;;;;0.80;0.80;;;;;;;20.70;89.63;96972.44;5086920;28;20212;-85
2022/10/03 12:25:22;;;;;;;0.80;0.80;;;;;;;21.03;87.93;96987.41;5083257;28;20225;-84
2022/10/03 12:27:59;;;;;;;1.02;0.80;;;;;;;20.93;87.14;96990.19;5078035;28;20632;-82
2022/10/03 12:30:33;;;;;;;1.20;0.90;;;;;;;20.89;88.45;96976.22;5086808;28;20234;-77
2022/10/03 12:33:26;;;;;;;0.85;0.80;;;;;;;20.79;86.75;96976.25;5088690;28;20274;-81
2022/10/03 12:36:02;;;;;;;1.95;1.23;;;;;;;20.64;88.23;96970.81;5084662;28;20213;-81
2022/10/03 12:38:49;;;;;;;0.88;0.82;;;;;;;20.68;88.40;96980.13;5091183;28;20200;-82
2022/10/03 12:41:25;;;;;;;1.00;0.90;;;;;;;20.73;86.94;96971.91;5073967;28;20226;-82
2022/10/03 12:44:10;;;;;;;1.00;0.88;;;;;;;20.67;87.79;96981.25;5079350;28;20216;-81
2022/10/03 12:46:49;;;;;;;0.93;0.75;;;;;;;20.50;88.12;96988.97;5081947;28;20210;-80
2022/10/03 12:49:25;;;;;;;1.55;1.00;;;;;;;20.19;90.90;96972.53;5084703;28;20274;-82
2022/10/03 12:51:57;;;;;;;2.67;0.80;;;;;;;19.99;91.77;96991.72;5082012;28;20212;-81
2022/10/03 12:54:40;;;;;;;0.73;0.73;;;;;;;20.01;91.97;96982.13;5084697;28;20209;-84
2022/10/03 12:57:37;;;;;;;0.70;0.70;;;;;;;20.08;91.25;96990.06;5085390;28;20209;-82
2022/10/03 13:00:06;;;;;;;0.82;0.82;;;;;;;19.73;91.28;96974.47;5075926;28;20218;-83
2022/10/03 13:02:40;;;;;;;1.95;0.70;;;;;;;20.02;92.17;96991.19;5085969;28;20210;-82
2022/10/03 13:05:32;;;;;;;0.80;0.80;;;;;;;20.10;88.84;96968.69;5085814;28;20210;-80
2022/10/03 13:08:05;;;;;;;2.60;1.00;;;;;;;20.26;92.02;96983.22;5078387;28;20223;-83
2022/10/03 13:10:41;;;;;;;0.70;0.70;;;;;;;20.10;91.02;96981.59;5085954;28;20221;-84
2022/10/03 13:13:27;;;;;;;1.20;0.80;;;;;;;19.96;93.81;96984.91;5072557;28;20216;-85
2022/10/03 13:16:12;;;;;;;1.40;0.90;;;;;;;19.80;95.19;96990.66;5082150;28;20284;-82
2022/10/03 13:18:49;;;;;;;1.95;0.80;;;;;;;19.58;96.14;96972.53;5078922;28;20305;-83
2022/10/03 13:21:21;;;;;;;3.05;1.00;;;;;;;19.61;97.03;96982.13;5083146;28;20211;-79
2022/10/03 13:23:56;;;;;;;1.15;1.00;;;;;;;19.36;100.00;96974.66;5084178;28;20202;-83